UAE65 EDDM-LIRF
Flight info
| Callsign | UAE65 |
|---|---|
| Flight time | N/A |
| Altitude | 35000 |
| Route | TURBU7N/26R TURBU Y107 TOBSO DCT BAKOR DCT VESAL DCT LAMPO DCT ROKIB DCT VIC DCT KOPER DCT SUKOM DCT BAGNO DCT GAVRA DCT RITEB |
| Aircraft | A388/J-SADE2E3FGHIJ3J4J5M1RWXY/L |
Departure
| Time | 2026-05-07 16:31 |
|---|---|
| Airport | Munich Airport (EDDM) |
Arrival
| Time | N/A |
|---|---|
| Airport | Rome–Fiumicino Leonardo da Vinci International Airport (LIRF) |
| Time | Latitude | Longitude | Altitude | Speed | Heading |
|---|---|---|---|---|---|
| 2026-05-07 16:00 | 48.35237 | 11.78318 | 1471 ft | 0 kts | 95° |
| 2026-05-07 16:12 | 48.35237 | 11.78314 | 1471 ft | 2 kts | 94° |
| 2026-05-07 16:12 | 48.35236 | 11.78289 | 1460 ft | 2 kts | 83° |
| 2026-05-07 16:12 | 48.35230 | 11.78266 | 1465 ft | 2 kts | 66° |
| 2026-05-07 16:13 | 48.35220 | 11.78247 | 1460 ft | 2 kts | 45° |
| 2026-05-07 16:13 | 48.35213 | 11.78239 | 1460 ft | 2 kts | 38° |
| 2026-05-07 16:13 | 48.35202 | 11.78225 | 1460 ft | 2 kts | 38° |
| 2026-05-07 16:13 | 48.35187 | 11.78211 | 1460 ft | 2 kts | 28° |
| 2026-05-07 16:14 | 48.35171 | 11.78204 | 1460 ft | 2 kts | 12° |
| 2026-05-07 16:14 | 48.35157 | 11.78203 | 1460 ft | 2 kts | 1° |
| 2026-05-07 16:14 | 48.35147 | 11.78205 | 1460 ft | 0 kts | 354° |
| 2026-05-07 16:15 | 48.35148 | 11.78205 | 1460 ft | 0 kts | 354° |
| 2026-05-07 16:17 | 48.35152 | 11.78204 | 1460 ft | 2 kts | 352° |
| 2026-05-07 16:17 | 48.35182 | 11.78198 | 1460 ft | 6 kts | 353° |
| 2026-05-07 16:17 | 48.35231 | 11.78188 | 1461 ft | 8 kts | 353° |
| 2026-05-07 16:17 | 48.35292 | 11.78175 | 1462 ft | 10 kts | 348° |
| 2026-05-07 16:18 | 48.35348 | 11.78134 | 1461 ft | 8 kts | 310° |
| 2026-05-07 16:18 | 48.35357 | 11.78071 | 1463 ft | 7 kts | 259° |
| 2026-05-07 16:18 | 48.35347 | 11.77989 | 1464 ft | 9 kts | 262° |
| 2026-05-07 16:18 | 48.35338 | 11.77896 | 1469 ft | 8 kts | 262° |
| 2026-05-07 16:19 | 48.35309 | 11.77813 | 1463 ft | 10 kts | 214° |
| 2026-05-07 16:19 | 48.35251 | 11.77796 | 1468 ft | 9 kts | 173° |
| 2026-05-07 16:19 | 48.35178 | 11.77809 | 1465 ft | 12 kts | 173° |
| 2026-05-07 16:19 | 48.35095 | 11.77824 | 1468 ft | 12 kts | 173° |
| 2026-05-07 16:20 | 48.35016 | 11.77838 | 1471 ft | 11 kts | 173° |
| 2026-05-07 16:20 | 48.34948 | 11.77850 | 1462 ft | 7 kts | 173° |
| 2026-05-07 16:20 | 48.34893 | 11.77859 | 1462 ft | 8 kts | 173° |
| 2026-05-07 16:20 | 48.34862 | 11.77865 | 1466 ft | 1 kts | 173° |
| 2026-05-07 16:21 | 48.34842 | 11.77868 | 1463 ft | 2 kts | 173° |
| 2026-05-07 16:21 | 48.34841 | 11.77868 | 1463 ft | 0 kts | 173° |
| 2026-05-07 16:23 | 48.34836 | 11.77869 | 1467 ft | 3 kts | 173° |
| 2026-05-07 16:23 | 48.34795 | 11.77876 | 1461 ft | 9 kts | 173° |
| 2026-05-07 16:23 | 48.34728 | 11.77888 | 1467 ft | 8 kts | 173° |
| 2026-05-07 16:23 | 48.34675 | 11.77926 | 1465 ft | 9 kts | 116° |
| 2026-05-07 16:24 | 48.34672 | 11.78029 | 1471 ft | 12 kts | 83° |
| 2026-05-07 16:24 | 48.34683 | 11.78167 | 1462 ft | 15 kts | 83° |
| 2026-05-07 16:24 | 48.34695 | 11.78335 | 1463 ft | 17 kts | 83° |
| 2026-05-07 16:24 | 48.34710 | 11.78528 | 1461 ft | 20 kts | 83° |
| 2026-05-07 16:25 | 48.34725 | 11.78725 | 1461 ft | 20 kts | 83° |
| 2026-05-07 16:25 | 48.34740 | 11.78923 | 1464 ft | 18 kts | 83° |
| 2026-05-07 16:25 | 48.34753 | 11.79098 | 1463 ft | 17 kts | 83° |
| 2026-05-07 16:25 | 48.34767 | 11.79271 | 1466 ft | 15 kts | 83° |
| 2026-05-07 16:26 | 48.34780 | 11.79437 | 1469 ft | 17 kts | 83° |
| 2026-05-07 16:26 | 48.34793 | 11.79603 | 1464 ft | 17 kts | 83° |
| 2026-05-07 16:26 | 48.34806 | 11.79776 | 1472 ft | 17 kts | 83° |
| 2026-05-07 16:26 | 48.34820 | 11.79964 | 1472 ft | 19 kts | 83° |
| 2026-05-07 16:27 | 48.34835 | 11.80163 | 1465 ft | 20 kts | 83° |
| 2026-05-07 16:27 | 48.34849 | 11.80339 | 1469 ft | 15 kts | 83° |
| 2026-05-07 16:27 | 48.34832 | 11.80493 | 1464 ft | 14 kts | 128° |
| 2026-05-07 16:27 | 48.34758 | 11.80557 | 1468 ft | 8 kts | 173° |
| 2026-05-07 16:28 | 48.34712 | 11.80565 | 1468 ft | 0 kts | 173° |
| 2026-05-07 16:28 | 48.34709 | 11.80565 | 1467 ft | 2 kts | 173° |
| 2026-05-07 16:28 | 48.34664 | 11.80572 | 1462 ft | 11 kts | 180° |
| 2026-05-07 16:28 | 48.34585 | 11.80521 | 1458 ft | 15 kts | 220° |
| 2026-05-07 16:29 | 48.34510 | 11.80418 | 1460 ft | 14 kts | 228° |
| 2026-05-07 16:29 | 48.34468 | 11.80335 | 1461 ft | 6 kts | 257° |
| 2026-05-07 16:29 | 48.34466 | 11.80320 | 1468 ft | 0 kts | 263° |
| 2026-05-07 16:30 | 48.34449 | 11.80085 | 1462 ft | 63 kts | 264° |
| 2026-05-07 16:31 | 48.34371 | 11.79044 | 1469 ft | 133 kts | 264° |
| 2026-05-07 16:31 | 48.34245 | 11.77428 | 1496 ft | 173 kts | 264° |
| 2026-05-07 16:31 | 48.34081 | 11.75645 | 2034 ft | 169 kts | 265° |
| 2026-05-07 16:31 | 48.33949 | 11.73944 | 2803 ft | 157 kts | 266° |
| 2026-05-07 16:32 | 48.33642 | 11.72363 | 3305 ft | 165 kts | 241° |
| 2026-05-07 16:32 | 48.32796 | 11.71183 | 3839 ft | 171 kts | 209° |
| 2026-05-07 16:32 | 48.31623 | 11.70803 | 4510 ft | 176 kts | 182° |
| 2026-05-07 16:32 | 48.30371 | 11.70856 | 5017 ft | 187 kts | 182° |
| 2026-05-07 16:33 | 48.29012 | 11.70958 | 5280 ft | 208 kts | 172° |
| 2026-05-07 16:33 | 48.27596 | 11.71863 | 5693 ft | 234 kts | 147° |
| 2026-05-07 16:33 | 48.26217 | 11.73349 | 6201 ft | 255 kts | 147° |
| 2026-05-07 16:33 | 48.24699 | 11.74919 | 6757 ft | 275 kts | 148° |
| 2026-05-07 16:34 | 48.23081 | 11.76560 | 7465 ft | 284 kts | 148° |
| 2026-05-07 16:34 | 48.21435 | 11.78222 | 8354 ft | 287 kts | 148° |
| 2026-05-07 16:34 | 48.19768 | 11.79906 | 9259 ft | 290 kts | 149° |
| 2026-05-07 16:34 | 48.18049 | 11.81507 | 10119 ft | 292 kts | 156° |
| 2026-05-07 16:35 | 48.16163 | 11.82643 | 10905 ft | 293 kts | 166° |
| 2026-05-07 16:35 | 48.14235 | 11.83557 | 11714 ft | 296 kts | 166° |
| 2026-05-07 16:35 | 48.12268 | 11.84520 | 12492 ft | 300 kts | 165° |
| 2026-05-07 16:35 | 48.10273 | 11.85511 | 13270 ft | 304 kts | 165° |
| 2026-05-07 16:36 | 48.08251 | 11.86518 | 14001 ft | 308 kts | 165° |
| 2026-05-07 16:36 | 48.06203 | 11.87537 | 14649 ft | 312 kts | 165° |
| 2026-05-07 16:36 | 48.04132 | 11.88566 | 15295 ft | 316 kts | 165° |
| 2026-05-07 16:36 | 48.02035 | 11.89607 | 15922 ft | 320 kts | 165° |
| 2026-05-07 16:37 | 47.99906 | 11.90662 | 16534 ft | 324 kts | 165° |
| 2026-05-07 16:37 | 47.97756 | 11.91727 | 17164 ft | 328 kts | 165° |
| 2026-05-07 16:37 | 47.95580 | 11.92804 | 17783 ft | 331 kts | 165° |
| 2026-05-07 16:37 | 47.93379 | 11.93888 | 18380 ft | 335 kts | 166° |
| 2026-05-07 16:38 | 47.91123 | 11.94658 | 19008 ft | 331 kts | 175° |
| 2026-05-07 16:38 | 47.88821 | 11.94878 | 19533 ft | 332 kts | 185° |
| 2026-05-07 16:38 | 47.86497 | 11.94790 | 20062 ft | 335 kts | 185° |
| 2026-05-07 16:38 | 47.84157 | 11.94728 | 20607 ft | 338 kts | 184° |
| 2026-05-07 16:39 | 47.81794 | 11.94680 | 21136 ft | 341 kts | 184° |
| 2026-05-07 16:39 | 47.79440 | 11.94637 | 21620 ft | 345 kts | 184° |
| 2026-05-07 16:39 | 47.76998 | 11.94595 | 22151 ft | 348 kts | 183° |
| 2026-05-07 16:39 | 47.74567 | 11.94552 | 22671 ft | 351 kts | 183° |
| 2026-05-07 16:40 | 47.72142 | 11.94507 | 23177 ft | 355 kts | 183° |
| 2026-05-07 16:40 | 47.69813 | 11.94467 | 23661 ft | 358 kts | 183° |
| 2026-05-07 16:40 | 47.67317 | 11.94426 | 24113 ft | 360 kts | 183° |
| 2026-05-07 16:40 | 47.64811 | 11.94385 | 24677 ft | 359 kts | 183° |
| 2026-05-07 16:41 | 47.62307 | 11.94341 | 25191 ft | 361 kts | 183° |
| 2026-05-07 16:41 | 47.59787 | 11.94296 | 25703 ft | 362 kts | 183° |
| 2026-05-07 16:41 | 47.57270 | 11.94251 | 26204 ft | 366 kts | 183° |
| 2026-05-07 16:41 | 47.54704 | 11.94206 | 26787 ft | 367 kts | 183° |
| 2026-05-07 16:42 | 47.52144 | 11.94162 | 27358 ft | 369 kts | 183° |
| 2026-05-07 16:42 | 47.49574 | 11.94118 | 27937 ft | 370 kts | 183° |
| 2026-05-07 16:42 | 47.46993 | 11.94073 | 28523 ft | 372 kts | 183° |
| 2026-05-07 16:42 | 47.44670 | 11.94033 | 29025 ft | 374 kts | 183° |
| 2026-05-07 16:43 | 47.42071 | 11.93836 | 29589 ft | 374 kts | 189° |
| 2026-05-07 16:43 | 47.39489 | 11.93301 | 30154 ft | 376 kts | 191° |
| 2026-05-07 16:43 | 47.36915 | 11.92770 | 30508 ft | 382 kts | 191° |
| 2026-05-07 16:43 | 47.34232 | 11.92228 | 30957 ft | 385 kts | 191° |
| 2026-05-07 16:44 | 47.31607 | 11.91704 | 31443 ft | 388 kts | 191° |
| 2026-05-07 16:44 | 47.28920 | 11.91169 | 31893 ft | 391 kts | 191° |
| 2026-05-07 16:44 | 47.26158 | 11.90617 | 32110 ft | 402 kts | 191° |
| 2026-05-07 16:44 | 47.23381 | 11.90059 | 32227 ft | 414 kts | 191° |
| 2026-05-07 16:45 | 47.20483 | 11.89478 | 32341 ft | 426 kts | 191° |
| 2026-05-07 16:45 | 47.17513 | 11.88887 | 32441 ft | 437 kts | 191° |
| 2026-05-07 16:45 | 47.14457 | 11.88282 | 32553 ft | 448 kts | 191° |
| 2026-05-07 16:45 | 47.11332 | 11.87663 | 32702 ft | 457 kts | 191° |
| 2026-05-07 16:46 | 47.08164 | 11.87038 | 33146 ft | 461 kts | 192° |
| 2026-05-07 16:46 | 47.04974 | 11.86410 | 33627 ft | 464 kts | 192° |
| 2026-05-07 16:46 | 47.01760 | 11.85762 | 34045 ft | 466 kts | 193° |
| 2026-05-07 16:46 | 46.98583 | 11.84814 | 34370 ft | 468 kts | 197° |
| 2026-05-07 16:47 | 46.95393 | 11.83784 | 34716 ft | 470 kts | 197° |
| 2026-05-07 16:47 | 46.92187 | 11.82756 | 34995 ft | 475 kts | 197° |
| 2026-05-07 16:47 | 46.88954 | 11.81724 | 34983 ft | 473 kts | 197° |
| 2026-05-07 16:48 | 46.82530 | 11.79689 | 34977 ft | 473 kts | 197° |
| 2026-05-07 16:48 | 46.76129 | 11.77666 | 34958 ft | 473 kts | 197° |
| 2026-05-07 16:49 | 46.69684 | 11.75631 | 34971 ft | 474 kts | 197° |
| 2026-05-07 16:49 | 46.63237 | 11.73614 | 34961 ft | 474 kts | 196° |
| 2026-05-07 16:50 | 46.56658 | 11.72570 | 34935 ft | 479 kts | 187° |
| 2026-05-07 16:50 | 46.49999 | 11.72244 | 34936 ft | 479 kts | 187° |
| 2026-05-07 16:51 | 46.43347 | 11.71884 | 34934 ft | 478 kts | 187° |
| 2026-05-07 16:51 | 46.36692 | 11.71515 | 34933 ft | 478 kts | 187° |
| 2026-05-07 16:52 | 46.30047 | 11.71166 | 34963 ft | 478 kts | 187° |
| 2026-05-07 16:52 | 46.23419 | 11.70813 | 34959 ft | 477 kts | 188° |
| 2026-05-07 16:53 | 46.16781 | 11.70465 | 34945 ft | 478 kts | 188° |
| 2026-05-07 16:53 | 46.10150 | 11.70119 | 34939 ft | 476 kts | 188° |
| 2026-05-07 16:54 | 46.04645 | 11.69822 | 34956 ft | 476 kts | 188° |
| 2026-05-07 16:54 | 45.98028 | 11.69464 | 34958 ft | 476 kts | 188° |
| 2026-05-07 16:55 | 45.90337 | 11.69054 | 34967 ft | 475 kts | 188° |
| 2026-05-07 16:55 | 45.84794 | 11.68760 | 34977 ft | 476 kts | 188° |
| 2026-05-07 16:56 | 45.78157 | 11.68405 | 34977 ft | 477 kts | 188° |
| 2026-05-07 16:56 | 45.68207 | 11.67876 | 34970 ft | 476 kts | 188° |
| 2026-05-07 16:57 | 45.61587 | 11.67515 | 34954 ft | 475 kts | 189° |
| 2026-05-07 16:57 | 45.55025 | 11.67030 | 34963 ft | 474 kts | 189° |
| 2026-05-07 16:58 | 45.48441 | 11.66531 | 34971 ft | 473 kts | 189° |
| 2026-05-07 16:58 | 45.41857 | 11.66049 | 34970 ft | 473 kts | 189° |
| 2026-05-07 16:59 | 45.35288 | 11.65574 | 34975 ft | 472 kts | 189° |
| 2026-05-07 16:59 | 45.28727 | 11.65101 | 34984 ft | 472 kts | 189° |
| 2026-05-07 17:00 | 45.22219 | 11.64632 | 35008 ft | 471 kts | 189° |
| 2026-05-07 17:00 | 45.15668 | 11.64180 | 35011 ft | 471 kts | 187° |
| 2026-05-07 17:01 | 45.09090 | 11.64422 | 35006 ft | 473 kts | 184° |
| 2026-05-07 17:01 | 45.02508 | 11.64751 | 35002 ft | 473 kts | 185° |
| 2026-05-07 17:02 | 44.95937 | 11.65064 | 35009 ft | 472 kts | 185° |
| 2026-05-07 17:02 | 44.89382 | 11.65373 | 35003 ft | 471 kts | 185° |
| 2026-05-07 17:03 | 44.82838 | 11.65681 | 35003 ft | 471 kts | 185° |
| 2026-05-07 17:03 | 44.76287 | 11.65989 | 35004 ft | 470 kts | 185° |
| 2026-05-07 17:04 | 44.69744 | 11.66296 | 35001 ft | 470 kts | 185° |
| 2026-05-07 17:04 | 44.63201 | 11.66602 | 34996 ft | 470 kts | 185° |
| 2026-05-07 17:05 | 44.56659 | 11.66910 | 34994 ft | 470 kts | 184° |
| 2026-05-07 17:05 | 44.50154 | 11.67972 | 34993 ft | 475 kts | 178° |
| 2026-05-07 17:06 | 44.43607 | 11.69320 | 34983 ft | 475 kts | 178° |
| 2026-05-07 17:06 | 44.37070 | 11.70643 | 34993 ft | 475 kts | 179° |
| 2026-05-07 17:07 | 44.30527 | 11.71957 | 35006 ft | 475 kts | 179° |
| 2026-05-07 17:07 | 44.23973 | 11.73270 | 34988 ft | 476 kts | 179° |
| 2026-05-07 17:08 | 44.17413 | 11.74582 | 34996 ft | 476 kts | 179° |
| 2026-05-07 17:08 | 44.10839 | 11.75894 | 34977 ft | 477 kts | 179° |
| 2026-05-07 17:09 | 44.04320 | 11.77191 | 34985 ft | 477 kts | 179° |
| 2026-05-07 17:09 | 43.97735 | 11.78502 | 34981 ft | 477 kts | 179° |
| 2026-05-07 17:10 | 43.91163 | 11.79805 | 34990 ft | 477 kts | 179° |
| 2026-05-07 17:10 | 43.84587 | 11.81103 | 34975 ft | 476 kts | 179° |
| 2026-05-07 17:11 | 43.78048 | 11.82401 | 34974 ft | 474 kts | 178° |
| 2026-05-07 17:11 | 43.71565 | 11.84380 | 34647 ft | 474 kts | 174° |
| 2026-05-07 17:12 | 43.68371 | 11.85418 | 34276 ft | 470 kts | 174° |
| 2026-05-07 17:12 | 43.65233 | 11.86429 | 33708 ft | 466 kts | 174° |
| 2026-05-07 17:12 | 43.62082 | 11.87438 | 33005 ft | 463 kts | 175° |
| 2026-05-07 17:12 | 43.58951 | 11.88436 | 32353 ft | 461 kts | 175° |
| 2026-05-07 17:13 | 43.55834 | 11.89427 | 31737 ft | 458 kts | 175° |
| 2026-05-07 17:13 | 43.52738 | 11.90410 | 31099 ft | 456 kts | 175° |
| 2026-05-07 17:13 | 43.49655 | 11.91387 | 30468 ft | 454 kts | 175° |
| 2026-05-07 17:13 | 43.46588 | 11.92359 | 29847 ft | 451 kts | 175° |
| 2026-05-07 17:14 | 43.43528 | 11.93328 | 29249 ft | 447 kts | 175° |
| 2026-05-07 17:14 | 43.40512 | 11.94283 | 28664 ft | 443 kts | 175° |
| 2026-05-07 17:14 | 43.37522 | 11.95229 | 28070 ft | 438 kts | 174° |
| 2026-05-07 17:14 | 43.34610 | 11.96145 | 27446 ft | 434 kts | 174° |
| 2026-05-07 17:15 | 43.31681 | 11.97067 | 26898 ft | 430 kts | 174° |
| 2026-05-07 17:15 | 43.28776 | 11.97983 | 26350 ft | 426 kts | 174° |
| 2026-05-07 17:15 | 43.25900 | 11.98889 | 25795 ft | 422 kts | 173° |
| 2026-05-07 17:15 | 43.23047 | 11.99787 | 25251 ft | 419 kts | 173° |
| 2026-05-07 17:16 | 43.20214 | 12.00677 | 24714 ft | 415 kts | 173° |
| 2026-05-07 17:16 | 43.17411 | 12.01557 | 24155 ft | 412 kts | 173° |
| 2026-05-07 17:16 | 43.14624 | 12.02431 | 23629 ft | 409 kts | 172° |
| 2026-05-07 17:16 | 43.11854 | 12.03299 | 23004 ft | 406 kts | 172° |
| 2026-05-07 17:17 | 43.09111 | 12.04158 | 22415 ft | 402 kts | 172° |
| 2026-05-07 17:17 | 43.06401 | 12.05006 | 21867 ft | 397 kts | 172° |
| 2026-05-07 17:17 | 43.03717 | 12.05846 | 21285 ft | 394 kts | 172° |
| 2026-05-07 17:17 | 43.01050 | 12.06678 | 20725 ft | 391 kts | 172° |
| 2026-05-07 17:18 | 42.98411 | 12.07501 | 20175 ft | 387 kts | 171° |
| 2026-05-07 17:18 | 42.95794 | 12.08316 | 19627 ft | 384 kts | 171° |
| 2026-05-07 17:18 | 42.93199 | 12.09124 | 19108 ft | 381 kts | 171° |
| 2026-05-07 17:18 | 42.90626 | 12.09924 | 18599 ft | 378 kts | 171° |
| 2026-05-07 17:19 | 42.88075 | 12.10717 | 18056 ft | 374 kts | 171° |
| 2026-05-07 17:19 | 42.85582 | 12.11493 | 17505 ft | 371 kts | 171° |
| 2026-05-07 17:19 | 42.83073 | 12.12272 | 16952 ft | 368 kts | 171° |
| 2026-05-07 17:19 | 42.80591 | 12.13040 | 16393 ft | 364 kts | 171° |
| 2026-05-07 17:20 | 42.78126 | 12.13803 | 15843 ft | 361 kts | 171° |
| 2026-05-07 17:20 | 42.75685 | 12.14559 | 15328 ft | 358 kts | 171° |
| 2026-05-07 17:20 | 42.73269 | 12.15307 | 15046 ft | 356 kts | 171° |
| 2026-05-07 17:20 | 42.70862 | 12.16122 | 14970 ft | 358 kts | 166° |
| 2026-05-07 17:21 | 42.68544 | 12.17409 | 14965 ft | 362 kts | 156° |
| 2026-05-07 17:21 | 42.66362 | 12.19133 | 14961 ft | 364 kts | 152° |
| 2026-05-07 17:21 | 42.64186 | 12.20902 | 14962 ft | 364 kts | 153° |
| 2026-05-07 17:21 | 42.62005 | 12.22654 | 14958 ft | 364 kts | 153° |
| 2026-05-07 17:22 | 42.59827 | 12.24395 | 14961 ft | 363 kts | 153° |
| 2026-05-07 17:22 | 42.57646 | 12.26135 | 14961 ft | 364 kts | 153° |
| 2026-05-07 17:22 | 42.55464 | 12.27874 | 14958 ft | 363 kts | 153° |
| 2026-05-07 17:22 | 42.53288 | 12.29608 | 14961 ft | 363 kts | 153° |
| 2026-05-07 17:23 | 42.51111 | 12.31342 | 14958 ft | 363 kts | 153° |
| 2026-05-07 17:23 | 42.48938 | 12.33072 | 14959 ft | 363 kts | 153° |
| 2026-05-07 17:23 | 42.46763 | 12.34803 | 14950 ft | 362 kts | 153° |
| 2026-05-07 17:23 | 42.44584 | 12.36536 | 14954 ft | 362 kts | 153° |
| 2026-05-07 17:24 | 42.42432 | 12.38247 | 14952 ft | 363 kts | 153° |
| 2026-05-07 17:24 | 42.40252 | 12.39979 | 14954 ft | 363 kts | 153° |
| 2026-05-07 17:24 | 42.38073 | 12.41709 | 14953 ft | 363 kts | 153° |
| 2026-05-07 17:24 | 42.35847 | 12.43290 | 14957 ft | 360 kts | 160° |
| 2026-05-07 17:25 | 42.33490 | 12.44401 | 14948 ft | 358 kts | 166° |
| 2026-05-07 17:25 | 42.31102 | 12.45378 | 14954 ft | 358 kts | 166° |
| 2026-05-07 17:25 | 42.28719 | 12.46374 | 14954 ft | 358 kts | 165° |
| 2026-05-07 17:25 | 42.26309 | 12.47182 | 14953 ft | 355 kts | 177° |
| 2026-05-07 17:26 | 42.23875 | 12.46938 | 14952 ft | 350 kts | 197° |
| 2026-05-07 17:26 | 42.21689 | 12.45581 | 14946 ft | 346 kts | 217° |
| 2026-05-07 17:26 | 42.20020 | 12.43304 | 14947 ft | 345 kts | 236° |
| 2026-05-07 17:26 | 42.19051 | 12.40368 | 14958 ft | 345 kts | 256° |
| 2026-05-07 17:27 | 42.18909 | 12.37154 | 14942 ft | 347 kts | 276° |
| 2026-05-07 17:27 | 42.19631 | 12.34048 | 14947 ft | 351 kts | 296° |
| 2026-05-07 17:27 | 42.21136 | 12.31435 | 14949 ft | 357 kts | 315° |
| 2026-05-07 17:27 | 42.23249 | 12.29648 | 14949 ft | 364 kts | 335° |
| 2026-05-07 17:28 | 42.25706 | 12.28904 | 14955 ft | 369 kts | 353° |
| 2026-05-07 17:28 | 42.28277 | 12.28798 | 14950 ft | 370 kts | 355° |
| 2026-05-07 17:28 | 42.30838 | 12.28472 | 14955 ft | 369 kts | 348° |
| 2026-05-07 17:28 | 42.33349 | 12.27808 | 14954 ft | 367 kts | 343° |
| 2026-05-07 17:29 | 42.35813 | 12.26925 | 14952 ft | 366 kts | 341° |
| 2026-05-07 17:29 | 42.38163 | 12.25680 | 14957 ft | 360 kts | 326° |
| 2026-05-07 17:29 | 42.40045 | 12.23516 | 14955 ft | 354 kts | 306° |
| 2026-05-07 17:29 | 42.41233 | 12.20654 | 14953 ft | 348 kts | 286° |
| 2026-05-07 17:30 | 42.41595 | 12.17445 | 14969 ft | 344 kts | 266° |
| 2026-05-07 17:30 | 42.41094 | 12.14311 | 14967 ft | 342 kts | 246° |
| 2026-05-07 17:30 | 42.39796 | 12.11630 | 14967 ft | 343 kts | 226° |
| 2026-05-07 17:30 | 42.37861 | 12.09745 | 14965 ft | 346 kts | 206° |
| 2026-05-07 17:31 | 42.35528 | 12.08901 | 14964 ft | 352 kts | 187° |
| 2026-05-07 17:31 | 42.33085 | 12.09213 | 14966 ft | 358 kts | 167° |
| 2026-05-07 17:31 | 42.30807 | 12.10617 | 14965 ft | 363 kts | 152° |
| 2026-05-07 17:31 | 42.28663 | 12.12334 | 14963 ft | 363 kts | 153° |
| 2026-05-07 17:32 | 42.26425 | 12.13901 | 14962 ft | 361 kts | 158° |
| 2026-05-07 17:32 | 42.24116 | 12.15215 | 14962 ft | 359 kts | 162° |
| 2026-05-07 17:32 | 42.21764 | 12.16350 | 14960 ft | 359 kts | 164° |
| 2026-05-07 17:32 | 42.20196 | 12.17044 | 14960 ft | 359 kts | 165° |
| 2026-05-07 17:33 | 42.17006 | 12.18357 | 15021 ft | 357 kts | 170° |
| 2026-05-07 17:33 | 42.14560 | 12.18749 | 15038 ft | 353 kts | 182° |
| 2026-05-07 17:33 | 42.12129 | 12.18410 | 15053 ft | 350 kts | 194° |
| 2026-05-07 17:33 | 42.09763 | 12.17658 | 15065 ft | 349 kts | 194° |
| 2026-05-07 17:34 | 42.07340 | 12.17259 | 15078 ft | 353 kts | 182° |
| 2026-05-07 17:34 | 42.04921 | 12.17607 | 15089 ft | 357 kts | 170° |
| 2026-05-07 17:34 | 42.02541 | 12.18584 | 15104 ft | 358 kts | 165° |
| 2026-05-07 17:34 | 42.00166 | 12.19622 | 14940 ft | 359 kts | 165° |
| 2026-05-07 17:35 | 41.97785 | 12.20624 | 14941 ft | 359 kts | 166° |
| 2026-05-07 17:35 | 41.95403 | 12.21611 | 14934 ft | 358 kts | 165° |
| 2026-05-07 17:35 | 41.93030 | 12.22602 | 14937 ft | 357 kts | 165° |
| 2026-05-07 17:35 | 41.90665 | 12.23594 | 14938 ft | 358 kts | 165° |
| 2026-05-07 17:36 | 41.88289 | 12.24593 | 14939 ft | 358 kts | 165° |
| 2026-05-07 17:36 | 41.85913 | 12.25592 | 14938 ft | 358 kts | 165° |
| 2026-05-07 17:36 | 41.83540 | 12.26590 | 14938 ft | 358 kts | 165° |
| 2026-05-07 17:36 | 41.81167 | 12.27613 | 14939 ft | 358 kts | 165° |
| 2026-05-07 17:37 | 41.78799 | 12.28647 | 14939 ft | 358 kts | 165° |
| 2026-05-07 17:37 | 41.76434 | 12.29680 | 14938 ft | 358 kts | 165° |
| 2026-05-07 17:37 | 41.74063 | 12.30712 | 14934 ft | 358 kts | 165° |
| 2026-05-07 17:37 | 41.71692 | 12.31740 | 14937 ft | 357 kts | 165° |
| 2026-05-07 17:38 | 41.69265 | 12.32287 | 14968 ft | 353 kts | 181° |
| 2026-05-07 17:38 | 41.66815 | 12.32179 | 14965 ft | 352 kts | 186° |
| 2026-05-07 17:38 | 41.64369 | 12.31929 | 14966 ft | 352 kts | 186° |
| 2026-05-07 17:38 | 41.61913 | 12.31829 | 14965 ft | 354 kts | 180° |
| 2026-05-07 17:39 | 41.59499 | 12.32281 | 14965 ft | 357 kts | 168° |
| 2026-05-07 17:39 | 41.57137 | 12.33323 | 14964 ft | 358 kts | 162° |
| 2026-05-07 17:39 | 41.54785 | 12.34473 | 14961 ft | 359 kts | 162° |
| 2026-05-07 17:39 | 41.52451 | 12.35646 | 14954 ft | 359 kts | 161° |
| 2026-05-07 17:40 | 41.50119 | 12.36835 | 14956 ft | 358 kts | 161° |
| 2026-05-07 17:40 | 41.47811 | 12.38017 | 14936 ft | 358 kts | 161° |
| 2026-05-07 17:40 | 41.45487 | 12.39208 | 14936 ft | 358 kts | 161° |
| 2026-05-07 17:40 | 41.43164 | 12.40398 | 14932 ft | 358 kts | 161° |
| 2026-05-07 17:41 | 41.40836 | 12.41589 | 14934 ft | 358 kts | 161° |
| 2026-05-07 17:41 | 41.38512 | 12.42777 | 14935 ft | 358 kts | 161° |
| 2026-05-07 17:41 | 41.36190 | 12.43956 | 14934 ft | 357 kts | 163° |
| 2026-05-07 17:41 | 41.33763 | 12.44526 | 14937 ft | 353 kts | 182° |
| 2026-05-07 17:42 | 41.31372 | 12.43949 | 14932 ft | 349 kts | 202° |
| 2026-05-07 17:42 | 41.29300 | 12.42304 | 14933 ft | 349 kts | 222° |
| 2026-05-07 17:42 | 41.28226 | 12.40721 | 14934 ft | 349 kts | 235° |
| 2026-05-07 17:42 | 41.27206 | 12.37807 | 14937 ft | 350 kts | 255° |
| 2026-05-07 17:43 | 41.27017 | 12.34584 | 14936 ft | 353 kts | 275° |
| 2026-05-07 17:43 | 41.27689 | 12.31446 | 14939 ft | 357 kts | 294° |
| 2026-05-07 17:43 | 41.29776 | 12.28052 | 14935 ft | 363 kts | 321° |
| 2026-05-07 17:43 | 41.32015 | 12.26488 | 14936 ft | 368 kts | 340° |
| 2026-05-07 17:44 | 41.33717 | 12.26033 | 14945 ft | 371 kts | 354° |
| 2026-05-07 17:44 | 41.36295 | 12.26323 | 14936 ft | 374 kts | 13° |
| 2026-05-07 17:44 | 41.38726 | 12.27450 | 14938 ft | 376 kts | 21° |
| 2026-05-07 17:44 | 41.41136 | 12.28815 | 14940 ft | 376 kts | 22° |
| 2026-05-07 17:45 | 41.43531 | 12.30221 | 14934 ft | 376 kts | 22° |
| 2026-05-07 17:45 | 41.45922 | 12.31636 | 14936 ft | 376 kts | 22° |
| 2026-05-07 17:45 | 41.48314 | 12.33046 | 14934 ft | 376 kts | 21° |
| 2026-05-07 17:45 | 41.50818 | 12.33980 | 14959 ft | 373 kts | 4° |
| 2026-05-07 17:46 | 41.53387 | 12.33787 | 14967 ft | 369 kts | 344° |
| 2026-05-07 17:46 | 41.55725 | 12.32488 | 14961 ft | 363 kts | 324° |
| 2026-05-07 17:46 | 41.57567 | 12.30243 | 14961 ft | 357 kts | 304° |
| 2026-05-07 17:46 | 41.58700 | 12.27337 | 14960 ft | 352 kts | 285° |
| 2026-05-07 17:47 | 41.59001 | 12.24120 | 14958 ft | 349 kts | 265° |
| 2026-05-07 17:47 | 41.58440 | 12.20994 | 14956 ft | 347 kts | 245° |
| 2026-05-07 17:47 | 41.57110 | 12.18368 | 14934 ft | 347 kts | 225° |
| 2026-05-07 17:47 | 41.55150 | 12.16515 | 14935 ft | 349 kts | 206° |
| 2026-05-07 17:48 | 41.52804 | 12.15693 | 14938 ft | 353 kts | 186° |
| 2026-05-07 17:48 | 41.50343 | 12.15853 | 14937 ft | 355 kts | 175° |
| 2026-05-07 17:48 | 41.47902 | 12.16361 | 14936 ft | 356 kts | 171° |
| 2026-05-07 17:48 | 41.45506 | 12.17195 | 14939 ft | 358 kts | 162° |
| 2026-05-07 17:49 | 41.43195 | 12.18466 | 14939 ft | 359 kts | 160° |
| 2026-05-07 17:49 | 41.40874 | 12.19673 | 14936 ft | 358 kts | 161° |
| 2026-05-07 17:49 | 41.38540 | 12.20841 | 14935 ft | 358 kts | 161° |
| 2026-05-07 17:49 | 41.36225 | 12.22060 | 14934 ft | 359 kts | 155° |
| 2026-05-07 17:50 | 41.34188 | 12.24008 | 14937 ft | 364 kts | 136° |
| 2026-05-07 17:50 | 41.32727 | 12.26765 | 14933 ft | 368 kts | 117° |
| 2026-05-07 17:50 | 41.32022 | 12.30039 | 14937 ft | 371 kts | 97° |
| 2026-05-07 17:50 | 41.32166 | 12.33469 | 14933 ft | 374 kts | 78° |
| 2026-05-07 17:51 | 41.33156 | 12.36670 | 14931 ft | 377 kts | 58° |
| 2026-05-07 17:51 | 41.34884 | 12.39278 | 14931 ft | 377 kts | 38° |
| 2026-05-07 17:51 | 41.37151 | 12.40991 | 14923 ft | 376 kts | 18° |
| 2026-05-07 17:51 | 41.39702 | 12.41616 | 14930 ft | 372 kts | 358° |
| 2026-05-07 17:52 | 41.42238 | 12.41093 | 14933 ft | 368 kts | 339° |
| 2026-05-07 17:52 | 41.44612 | 12.39838 | 14936 ft | 367 kts | 335° |
| 2026-05-07 17:52 | 41.46974 | 12.38549 | 14932 ft | 367 kts | 335° |
| 2026-05-07 17:52 | 41.49343 | 12.37281 | 14955 ft | 367 kts | 336° |
| 2026-05-07 17:53 | 41.51648 | 12.35855 | 14957 ft | 364 kts | 324° |
| 2026-05-07 17:53 | 41.53513 | 12.33625 | 14964 ft | 359 kts | 306° |
| 2026-05-07 17:53 | 41.54726 | 12.30757 | 14959 ft | 354 kts | 288° |
| 2026-05-07 17:53 | 41.55194 | 12.27566 | 14956 ft | 350 kts | 270° |
| 2026-05-07 17:54 | 41.54899 | 12.24369 | 14955 ft | 348 kts | 252° |
| 2026-05-07 17:54 | 41.53882 | 12.21459 | 14949 ft | 347 kts | 235° |
| 2026-05-07 17:54 | 41.52240 | 12.19106 | 14948 ft | 348 kts | 218° |
| 2026-05-07 17:54 | 41.50154 | 12.17555 | 14936 ft | 350 kts | 201° |
| 2026-05-07 17:55 | 41.47762 | 12.16928 | 14935 ft | 353 kts | 183° |
| 2026-05-07 17:55 | 41.45322 | 12.17338 | 14938 ft | 357 kts | 165° |